sensor_id;sensor_type;location;lat;lon;timestamp;P1;durP1;ratioP1;P2;durP2;ratioP2
10389;SDS011;5241;47.830;12.972;2023-04-24T00:01:23;7.73;;;5.30;;
10389;SDS011;5241;47.830;12.972;2023-04-24T00:03:49;5.53;;;4.90;;
10389;SDS011;5241;47.830;12.972;2023-04-24T00:06:15;6.07;;;5.10;;
10389;SDS011;5241;47.830;12.972;2023-04-24T00:08:42;5.90;;;4.43;;
10389;SDS011;5241;47.830;12.972;2023-04-24T00:11:07;8.57;;;4.43;;
10389;SDS011;5241;47.830;12.972;2023-04-24T00:13:34;4.23;;;3.80;;
10389;SDS011;5241;47.830;12.972;2023-04-24T00:16:00;6.07;;;4.30;;
10389;SDS011;5241;47.830;12.972;2023-04-24T00:18:26;3.77;;;2.70;;
10389;SDS011;5241;47.830;12.972;2023-04-24T00:20:51;3.03;;;2.57;;
10389;SDS011;5241;47.830;12.972;2023-04-24T00:23:17;3.23;;;2.93;;
10389;SDS011;5241;47.830;12.972;2023-04-24T00:25:42;5.80;;;2.90;;
10389;SDS011;5241;47.830;12.972;2023-04-24T00:28:08;3.90;;;2.70;;
10389;SDS011;5241;47.830;12.972;2023-04-24T00:30:34;2.20;;;2.00;;
10389;SDS011;5241;47.830;12.972;2023-04-24T00:32:59;2.87;;;2.57;;
10389;SDS011;5241;47.830;12.972;2023-04-24T00:35:25;2.40;;;2.17;;
10389;SDS011;5241;47.830;12.972;2023-04-24T00:37:50;1.70;;;1.50;;
10389;SDS011;5241;47.830;12.972;2023-04-24T00:40:16;4.63;;;2.60;;
10389;SDS011;5241;47.830;12.972;2023-04-24T00:42:41;2.00;;;1.50;;
10389;SDS011;5241;47.830;12.972;2023-04-24T00:45:08;2.80;;;1.37;;
10389;SDS011;5241;47.830;12.972;2023-04-24T00:47:34;2.47;;;1.40;;
10389;SDS011;5241;47.830;12.972;2023-04-24T00:50:01;4.43;;;1.60;;
10389;SDS011;5241;47.830;12.972;2023-04-24T00:52:28;2.20;;;1.20;;
10389;SDS011;5241;47.830;12.972;2023-04-24T00:54:56;1.80;;;1.43;;
10389;SDS011;5241;47.830;12.972;2023-04-24T00:57:21;1.87;;;1.30;;
10389;SDS011;5241;47.830;12.972;2023-04-24T00:59:48;2.03;;;1.13;;
10389;SDS011;5241;47.830;12.972;2023-04-24T01:02:14;1.53;;;1.43;;
10389;SDS011;5241;47.830;12.972;2023-04-24T01:04:40;1.30;;;1.20;;
10389;SDS011;5241;47.830;12.972;2023-04-24T01:07:06;1.77;;;1.30;;
10389;SDS011;5241;47.830;12.972;2023-04-24T01:09:35;1.60;;;1.40;;
10389;SDS011;5241;47.830;12.972;2023-04-24T01:12:12;2.07;;;1.37;;
10389;SDS011;5241;47.830;12.972;2023-04-24T01:14:37;2.77;;;1.67;;
10389;SDS011;5241;47.830;12.972;2023-04-24T01:17:03;2.20;;;1.50;;
10389;SDS011;5241;47.830;12.972;2023-04-24T01:19:28;1.40;;;1.30;;
10389;SDS011;5241;47.830;12.972;2023-04-24T01:21:54;1.73;;;1.23;;
10389;SDS011;5241;47.830;12.972;2023-04-24T01:24:23;2.03;;;1.30;;
10389;SDS011;5241;47.830;12.972;2023-04-24T01:26:49;1.90;;;1.27;;
10389;SDS011;5241;47.830;12.972;2023-04-24T01:29:15;1.33;;;1.20;;
10389;SDS011;5241;47.830;12.972;2023-04-24T01:31:40;2.70;;;1.30;;
10389;SDS011;5241;47.830;12.972;2023-04-24T01:34:06;2.37;;;1.40;;
10389;SDS011;5241;47.830;12.972;2023-04-24T01:36:33;1.40;;;1.30;;
10389;SDS011;5241;47.830;12.972;2023-04-24T01:39:00;1.67;;;1.37;;
10389;SDS011;5241;47.830;12.972;2023-04-24T01:41:25;1.77;;;1.40;;
10389;SDS011;5241;47.830;12.972;2023-04-24T01:43:51;1.50;;;1.37;;
10389;SDS011;5241;47.830;12.972;2023-04-24T01:46:17;2.30;;;1.33;;
10389;SDS011;5241;47.830;12.972;2023-04-24T01:48:44;1.30;;;1.17;;
10389;SDS011;5241;47.830;12.972;2023-04-24T01:51:10;1.73;;;1.23;;
10389;SDS011;5241;47.830;12.972;2023-04-24T01:53:36;1.33;;;1.10;;
10389;SDS011;5241;47.830;12.972;2023-04-24T01:56:01;2.23;;;1.20;;
10389;SDS011;5241;47.830;12.972;2023-04-24T01:58:28;2.17;;;1.30;;
10389;SDS011;5241;47.830;12.972;2023-04-24T02:00:55;1.20;;;1.10;;
10389;SDS011;5241;47.830;12.972;2023-04-24T02:03:21;1.33;;;1.20;;
10389;SDS011;5241;47.830;12.972;2023-04-24T02:05:47;1.20;;;1.10;;
10389;SDS011;5241;47.830;12.972;2023-04-24T02:08:12;1.20;;;1.10;;
10389;SDS011;5241;47.830;12.972;2023-04-24T02:10:38;1.33;;;1.00;;
10389;SDS011;5241;47.830;12.972;2023-04-24T02:13:03;1.77;;;1.20;;
10389;SDS011;5241;47.830;12.972;2023-04-24T02:15:29;1.30;;;1.20;;
10389;SDS011;5241;47.830;12.972;2023-04-24T02:17:55;1.83;;;1.20;;
10389;SDS011;5241;47.830;12.972;2023-04-24T02:20:21;1.90;;;1.27;;
10389;SDS011;5241;47.830;12.972;2023-04-24T02:22:46;1.83;;;1.40;;
10389;SDS011;5241;47.830;12.972;2023-04-24T02:25:12;3.00;;;1.20;;
10389;SDS011;5241;47.830;12.972;2023-04-24T02:27:37;1.23;;;1.13;;
10389;SDS011;5241;47.830;12.972;2023-04-24T02:30:03;2.37;;;1.20;;
10389;SDS011;5241;47.830;12.972;2023-04-24T02:32:29;1.43;;;1.30;;
10389;SDS011;5241;47.830;12.972;2023-04-24T02:34:55;1.20;;;1.10;;
10389;SDS011;5241;47.830;12.972;2023-04-24T02:37:21;2.33;;;1.40;;
10389;SDS011;5241;47.830;12.972;2023-04-24T02:39:46;2.53;;;1.30;;
10389;SDS011;5241;47.830;12.972;2023-04-24T02:42:12;1.60;;;1.10;;
10389;SDS011;5241;47.830;12.972;2023-04-24T02:44:38;1.53;;;1.27;;
10389;SDS011;5241;47.830;12.972;2023-04-24T02:47:04;1.33;;;1.20;;
10389;SDS011;5241;47.830;12.972;2023-04-24T02:49:30;3.47;;;1.40;;
10389;SDS011;5241;47.830;12.972;2023-04-24T02:51:55;3.07;;;1.50;;
10389;SDS011;5241;47.830;12.972;2023-04-24T02:54:21;1.43;;;1.30;;
10389;SDS011;5241;47.830;12.972;2023-04-24T02:56:46;1.30;;;1.20;;
10389;SDS011;5241;47.830;12.972;2023-04-24T02:59:12;1.30;;;1.20;;
10389;SDS011;5241;47.830;12.972;2023-04-24T03:01:37;1.40;;;1.20;;
10389;SDS011;5241;47.830;12.972;2023-04-24T03:04:03;1.37;;;1.20;;
10389;SDS011;5241;47.830;12.972;2023-04-24T03:06:28;1.20;;;1.10;;
10389;SDS011;5241;47.830;12.972;2023-04-24T03:08:56;1.50;;;1.40;;
10389;SDS011;5241;47.830;12.972;2023-04-24T03:11:21;1.30;;;1.20;;
10389;SDS011;5241;47.830;12.972;2023-04-24T03:13:47;1.73;;;1.40;;
10389;SDS011;5241;47.830;12.972;2023-04-24T03:16:12;1.73;;;1.23;;
10389;SDS011;5241;47.830;12.972;2023-04-24T03:18:38;1.67;;;1.27;;
10389;SDS011;5241;47.830;12.972;2023-04-24T03:21:03;1.90;;;1.60;;
10389;SDS011;5241;47.830;12.972;2023-04-24T03:23:29;2.87;;;1.60;;
10389;SDS011;5241;47.830;12.972;2023-04-24T03:25:54;2.67;;;1.70;;
10389;SDS011;5241;47.830;12.972;2023-04-24T03:28:20;2.60;;;1.40;;
10389;SDS011;5241;47.830;12.972;2023-04-24T03:30:46;3.07;;;1.43;;
10389;SDS011;5241;47.830;12.972;2023-04-24T03:33:11;2.50;;;1.40;;
10389;SDS011;5241;47.830;12.972;2023-04-24T03:35:37;2.57;;;1.47;;
10389;SDS011;5241;47.830;12.972;2023-04-24T03:38:02;3.03;;;1.50;;
10389;SDS011;5241;47.830;12.972;2023-04-24T03:40:31;2.00;;;1.50;;
10389;SDS011;5241;47.830;12.972;2023-04-24T03:42:58;4.03;;;1.63;;
10389;SDS011;5241;47.830;12.972;2023-04-24T03:45:24;2.77;;;1.57;;
10389;SDS011;5241;47.830;12.972;2023-04-24T03:47:49;1.90;;;1.43;;
10389;SDS011;5241;47.830;12.972;2023-04-24T03:50:15;1.60;;;1.50;;
10389;SDS011;5241;47.830;12.972;2023-04-24T03:52:40;1.67;;;1.50;;
10389;SDS011;5241;47.830;12.972;2023-04-24T03:55:06;2.23;;;1.30;;
10389;SDS011;5241;47.830;12.972;2023-04-24T03:57:32;1.77;;;1.23;;
10389;SDS011;5241;47.830;12.972;2023-04-24T03:59:57;1.63;;;1.30;;
10389;SDS011;5241;47.830;12.972;2023-04-24T04:02:23;1.67;;;1.30;;
10389;SDS011;5241;47.830;12.972;2023-04-24T04:04:49;1.30;;;1.20;;
10389;SDS011;5241;47.830;12.972;2023-04-24T04:07:14;1.57;;;1.30;;
10389;SDS011;5241;47.830;12.972;2023-04-24T04:09:40;2.73;;;1.53;;
10389;SDS011;5241;47.830;12.972;2023-04-24T04:12:05;3.10;;;1.67;;
10389;SDS011;5241;47.830;12.972;2023-04-24T04:14:31;3.23;;;1.80;;
10389;SDS011;5241;47.830;12.972;2023-04-24T04:16:56;2.03;;;1.00;;
10389;SDS011;5241;47.830;12.972;2023-04-24T04:19:22;3.07;;;1.00;;
10389;SDS011;5241;47.830;12.972;2023-04-24T04:21:47;2.00;;;1.13;;
10389;SDS011;5241;47.830;12.972;2023-04-24T04:24:17;1.53;;;1.03;;
10389;SDS011;5241;47.830;12.972;2023-04-24T04:26:44;2.17;;;1.20;;
10389;SDS011;5241;47.830;12.972;2023-04-24T04:29:12;1.50;;;1.00;;
10389;SDS011;5241;47.830;12.972;2023-04-24T04:31:38;1.30;;;1.20;;
10389;SDS011;5241;47.830;12.972;2023-04-24T04:34:03;2.03;;;1.30;;
10389;SDS011;5241;47.830;12.972;2023-04-24T04:36:29;1.27;;;1.17;;
10389;SDS011;5241;47.830;12.972;2023-04-24T04:38:56;1.20;;;1.10;;
10389;SDS011;5241;47.830;12.972;2023-04-24T04:41:21;1.60;;;1.20;;
10389;SDS011;5241;47.830;12.972;2023-04-24T04:43:47;2.33;;;1.10;;
10389;SDS011;5241;47.830;12.972;2023-04-24T04:46:13;2.83;;;1.10;;
10389;SDS011;5241;47.830;12.972;2023-04-24T04:48:38;3.77;;;1.40;;
10389;SDS011;5241;47.830;12.972;2023-04-24T04:51:04;2.23;;;1.50;;
10389;SDS011;5241;47.830;12.972;2023-04-24T04:53:30;1.40;;;1.20;;
10389;SDS011;5241;47.830;12.972;2023-04-24T04:55:56;2.50;;;1.30;;
10389;SDS011;5241;47.830;12.972;2023-04-24T04:58:21;3.30;;;1.40;;
10389;SDS011;5241;47.830;12.972;2023-04-24T05:00:47;1.93;;;1.30;;
10389;SDS011;5241;47.830;12.972;2023-04-24T05:03:13;1.47;;;1.20;;
10389;SDS011;5241;47.830;12.972;2023-04-24T05:05:39;2.00;;;1.47;;
10389;SDS011;5241;47.830;12.972;2023-04-24T05:08:06;1.63;;;1.50;;
10389;SDS011;5241;47.830;12.972;2023-04-24T05:10:32;2.10;;;1.40;;
10389;SDS011;5241;47.830;12.972;2023-04-24T05:12:58;2.13;;;1.60;;
10389;SDS011;5241;47.830;12.972;2023-04-24T05:15:23;2.57;;;1.77;;
10389;SDS011;5241;47.830;12.972;2023-04-24T05:17:49;3.40;;;1.90;;
10389;SDS011;5241;47.830;12.972;2023-04-24T05:20:14;2.53;;;1.60;;
10389;SDS011;5241;47.830;12.972;2023-04-24T05:22:40;1.97;;;1.70;;
10389;SDS011;5241;47.830;12.972;2023-04-24T05:25:06;3.63;;;1.67;;
10389;SDS011;5241;47.830;12.972;2023-04-24T05:27:31;2.37;;;1.70;;
10389;SDS011;5241;47.830;12.972;2023-04-24T05:29:57;2.53;;;1.97;;
10389;SDS011;5241;47.830;12.972;2023-04-24T05:32:23;3.03;;;1.80;;
10389;SDS011;5241;47.830;12.972;2023-04-24T05:34:48;2.97;;;1.83;;
10389;SDS011;5241;47.830;12.972;2023-04-24T05:37:14;2.17;;;1.83;;
10389;SDS011;5241;47.830;12.972;2023-04-24T05:39:39;2.10;;;1.80;;
10389;SDS011;5241;47.830;12.972;2023-04-24T05:42:06;3.07;;;1.90;;
10389;SDS011;5241;47.830;12.972;2023-04-24T05:44:32;2.33;;;1.87;;
10389;SDS011;5241;47.830;12.972;2023-04-24T05:46:57;2.70;;;1.70;;
10389;SDS011;5241;47.830;12.972;2023-04-24T05:49:23;2.17;;;1.87;;
10389;SDS011;5241;47.830;12.972;2023-04-24T05:51:49;2.90;;;2.03;;
10389;SDS011;5241;47.830;12.972;2023-04-24T05:54:14;2.87;;;1.80;;
10389;SDS011;5241;47.830;12.972;2023-04-24T05:56:40;3.77;;;1.70;;
10389;SDS011;5241;47.830;12.972;2023-04-24T05:59:05;3.10;;;1.73;;
10389;SDS011;5241;47.830;12.972;2023-04-24T06:01:31;2.70;;;1.50;;
10389;SDS011;5241;47.830;12.972;2023-04-24T06:03:57;2.27;;;1.70;;
10389;SDS011;5241;47.830;12.972;2023-04-24T06:06:25;2.33;;;1.70;;
10389;SDS011;5241;47.830;12.972;2023-04-24T06:08:52;2.20;;;1.53;;
10389;SDS011;5241;47.830;12.972;2023-04-24T06:11:17;2.53;;;2.03;;
10389;SDS011;5241;47.830;12.972;2023-04-24T06:13:43;1.17;;;1.00;;
10389;SDS011;5241;47.830;12.972;2023-04-24T06:16:08;1.00;;;1.00;;
10389;SDS011;5241;47.830;12.972;2023-04-24T06:18:34;1.00;;;0.80;;
10389;SDS011;5241;47.830;12.972;2023-04-24T06:21:00;1.10;;;0.80;;
10389;SDS011;5241;47.830;12.972;2023-04-24T06:23:25;4.07;;;2.30;;
10389;SDS011;5241;47.830;12.972;2023-04-24T06:25:51;3.50;;;1.97;;
10389;SDS011;5241;47.830;12.972;2023-04-24T06:28:16;1.50;;;1.07;;
10389;SDS011;5241;47.830;12.972;2023-04-24T06:30:42;1.43;;;0.80;;
10389;SDS011;5241;47.830;12.972;2023-04-24T06:33:08;0.87;;;0.80;;
10389;SDS011;5241;47.830;12.972;2023-04-24T06:35:34;0.70;;;0.70;;
10389;SDS011;5241;47.830;12.972;2023-04-24T06:37:59;0.80;;;0.77;;
10389;SDS011;5241;47.830;12.972;2023-04-24T06:40:25;4.17;;;1.00;;
10389;SDS011;5241;47.830;12.972;2023-04-24T06:42:51;1.20;;;1.10;;
10389;SDS011;5241;47.830;12.972;2023-04-24T06:45:16;2.43;;;0.90;;
10389;SDS011;5241;47.830;12.972;2023-04-24T06:47:42;0.83;;;0.83;;
10389;SDS011;5241;47.830;12.972;2023-04-24T06:50:07;2.00;;;1.00;;
10389;SDS011;5241;47.830;12.972;2023-04-24T06:52:33;0.87;;;0.80;;
10389;SDS011;5241;47.830;12.972;2023-04-24T06:55:00;1.20;;;0.80;;
10389;SDS011;5241;47.830;12.972;2023-04-24T06:57:29;0.63;;;0.63;;
10389;SDS011;5241;47.830;12.972;2023-04-24T06:59:55;1.03;;;0.83;;
10389;SDS011;5241;47.830;12.972;2023-04-24T07:02:21;1.67;;;1.00;;
10389;SDS011;5241;47.830;12.972;2023-04-24T07:04:47;1.23;;;0.90;;
10389;SDS011;5241;47.830;12.972;2023-04-24T07:07:13;0.70;;;0.70;;
10389;SDS011;5241;47.830;12.972;2023-04-24T07:09:41;1.33;;;0.90;;
10389;SDS011;5241;47.830;12.972;2023-04-24T07:12:10;1.13;;;0.70;;
10389;SDS011;5241;47.830;12.972;2023-04-24T07:14:36;1.40;;;1.00;;
10389;SDS011;5241;47.830;12.972;2023-04-24T07:17:03;1.93;;;1.50;;
10389;SDS011;5241;47.830;12.972;2023-04-24T07:19:29;2.00;;;1.50;;
10389;SDS011;5241;47.830;12.972;2023-04-24T07:21:55;3.30;;;1.60;;
10389;SDS011;5241;47.830;12.972;2023-04-24T07:24:23;1.40;;;1.23;;
10389;SDS011;5241;47.830;12.972;2023-04-24T07:26:49;1.33;;;0.90;;
10389;SDS011;5241;47.830;12.972;2023-04-24T07:29:16;1.00;;;0.83;;
10389;SDS011;5241;47.830;12.972;2023-04-24T07:31:42;0.80;;;0.80;;
10389;SDS011;5241;47.830;12.972;2023-04-24T07:34:08;0.70;;;0.70;;
10389;SDS011;5241;47.830;12.972;2023-04-24T07:36:33;0.60;;;0.60;;
10389;SDS011;5241;47.830;12.972;2023-04-24T07:38:59;1.27;;;0.63;;
10389;SDS011;5241;47.830;12.972;2023-04-24T07:41:24;1.77;;;0.80;;
10389;SDS011;5241;47.830;12.972;2023-04-24T07:43:50;1.30;;;1.07;;
10389;SDS011;5241;47.830;12.972;2023-04-24T07:46:16;0.70;;;0.70;;
10389;SDS011;5241;47.830;12.972;2023-04-24T07:48:41;0.90;;;0.73;;
10389;SDS011;5241;47.830;12.972;2023-04-24T07:51:07;0.50;;;0.50;;
10389;SDS011;5241;47.830;12.972;2023-04-24T07:53:35;0.80;;;0.60;;
10389;SDS011;5241;47.830;12.972;2023-04-24T07:56:00;0.70;;;0.70;;
10389;SDS011;5241;47.830;12.972;2023-04-24T07:58:26;1.20;;;0.60;;
10389;SDS011;5241;47.830;12.972;2023-04-24T08:00:51;0.73;;;0.63;;
10389;SDS011;5241;47.830;12.972;2023-04-24T08:03:17;1.13;;;0.80;;
10389;SDS011;5241;47.830;12.972;2023-04-24T08:05:44;2.43;;;1.07;;
10389;SDS011;5241;47.830;12.972;2023-04-24T08:08:10;1.17;;;0.80;;
10389;SDS011;5241;47.830;12.972;2023-04-24T08:10:36;0.60;;;0.60;;
10389;SDS011;5241;47.830;12.972;2023-04-24T08:13:01;1.60;;;0.70;;
10389;SDS011;5241;47.830;12.972;2023-04-24T08:15:27;1.10;;;1.00;;
10389;SDS011;5241;47.830;12.972;2023-04-24T08:17:53;3.63;;;2.10;;
10389;SDS011;5241;47.830;12.972;2023-04-24T08:20:18;3.20;;;1.70;;
10389;SDS011;5241;47.830;12.972;2023-04-24T08:22:44;2.00;;;1.50;;
10389;SDS011;5241;47.830;12.972;2023-04-24T08:25:12;2.27;;;1.10;;
10389;SDS011;5241;47.830;12.972;2023-04-24T08:27:37;2.40;;;1.03;;
10389;SDS011;5241;47.830;12.972;2023-04-24T08:30:04;1.37;;;1.20;;
10389;SDS011;5241;47.830;12.972;2023-04-24T08:32:31;2.43;;;1.27;;
10389;SDS011;5241;47.830;12.972;2023-04-24T08:34:57;1.30;;;1.20;;
10389;SDS011;5241;47.830;12.972;2023-04-24T08:37:23;3.03;;;1.30;;
10389;SDS011;5241;47.830;12.972;2023-04-24T08:39:50;2.83;;;1.37;;
10389;SDS011;5241;47.830;12.972;2023-04-24T08:42:19;2.40;;;1.10;;
10389;SDS011;5241;47.830;12.972;2023-04-24T08:44:45;1.07;;;0.80;;
10389;SDS011;5241;47.830;12.972;2023-04-24T08:47:13;0.90;;;0.60;;
10389;SDS011;5241;47.830;12.972;2023-04-24T08:49:39;0.87;;;0.63;;
10389;SDS011;5241;47.830;12.972;2023-04-24T08:52:05;1.40;;;0.80;;
10389;SDS011;5241;47.830;12.972;2023-04-24T08:54:31;0.73;;;0.73;;
10389;SDS011;5241;47.830;12.972;2023-04-24T08:57:00;0.83;;;0.67;;
10389;SDS011;5241;47.830;12.972;2023-04-24T08:59:28;0.60;;;0.60;;
10389;SDS011;5241;47.830;12.972;2023-04-24T09:01:55;1.13;;;0.67;;
10389;SDS011;5241;47.830;12.972;2023-04-24T09:04:22;0.80;;;0.80;;
10389;SDS011;5241;47.830;12.972;2023-04-24T09:06:54;1.30;;;0.70;;
10389;SDS011;5241;47.830;12.972;2023-04-24T09:09:20;2.97;;;1.10;;
10389;SDS011;5241;47.830;12.972;2023-04-24T09:11:48;3.83;;;1.60;;
10389;SDS011;5241;47.830;12.972;2023-04-24T09:14:15;1.83;;;0.90;;
10389;SDS011;5241;47.830;12.972;2023-04-24T09:16:40;1.17;;;0.80;;
10389;SDS011;5241;47.830;12.972;2023-04-24T09:19:06;1.23;;;0.90;;
10389;SDS011;5241;47.830;12.972;2023-04-24T09:21:32;0.70;;;0.70;;
10389;SDS011;5241;47.830;12.972;2023-04-24T09:24:00;0.70;;;0.70;;
10389;SDS011;5241;47.830;12.972;2023-04-24T09:26:32;2.87;;;1.13;;
10389;SDS011;5241;47.830;12.972;2023-04-24T09:28:59;1.47;;;0.87;;
10389;SDS011;5241;47.830;12.972;2023-04-24T09:31:26;2.73;;;1.40;;
10389;SDS011;5241;47.830;12.972;2023-04-24T09:34:00;0.77;;;0.40;;
10389;SDS011;5241;47.830;12.972;2023-04-24T09:36:36;1.23;;;0.70;;
10389;SDS011;5241;47.830;12.972;2023-04-24T09:39:10;1.90;;;1.03;;
10389;SDS011;5241;47.830;12.972;2023-04-24T09:41:44;2.23;;;0.90;;
10389;SDS011;5241;47.830;12.972;2023-04-24T09:44:17;2.13;;;0.87;;
10389;SDS011;5241;47.830;12.972;2023-04-24T09:46:54;2.20;;;1.93;;
10389;SDS011;5241;47.830;12.972;2023-04-24T09:49:26;1.70;;;1.30;;
10389;SDS011;5241;47.830;12.972;2023-04-24T09:52:10;1.50;;;1.40;;
10389;SDS011;5241;47.830;12.972;2023-04-24T09:54:37;1.00;;;0.60;;
10389;SDS011;5241;47.830;12.972;2023-04-24T09:57:03;1.00;;;0.90;;
10389;SDS011;5241;47.830;12.972;2023-04-24T09:59:29;2.20;;;1.40;;
10389;SDS011;5241;47.830;12.972;2023-04-24T10:01:55;1.80;;;0.80;;
10389;SDS011;5241;47.830;12.972;2023-04-24T10:04:22;1.73;;;1.13;;
10389;SDS011;5241;47.830;12.972;2023-04-24T10:06:50;1.13;;;0.80;;
10389;SDS011;5241;47.830;12.972;2023-04-24T10:09:17;1.30;;;0.90;;
10389;SDS011;5241;47.830;12.972;2023-04-24T10:11:44;2.50;;;0.80;;
10389;SDS011;5241;47.830;12.972;2023-04-24T10:14:18;1.20;;;0.90;;
10389;SDS011;5241;47.830;12.972;2023-04-24T10:16:46;1.33;;;0.50;;
10389;SDS011;5241;47.830;12.972;2023-04-24T10:19:12;1.27;;;0.90;;
10389;SDS011;5241;47.830;12.972;2023-04-24T10:21:39;1.07;;;0.80;;
10389;SDS011;5241;47.830;12.972;2023-04-24T10:24:13;0.60;;;0.60;;
10389;SDS011;5241;47.830;12.972;2023-04-24T10:26:40;0.97;;;0.70;;
10389;SDS011;5241;47.830;12.972;2023-04-24T10:29:06;0.60;;;0.60;;
10389;SDS011;5241;47.830;12.972;2023-04-24T10:31:34;1.83;;;0.80;;
10389;SDS011;5241;47.830;12.972;2023-04-24T10:34:01;1.07;;;0.60;;
10389;SDS011;5241;47.830;12.972;2023-04-24T10:36:28;0.70;;;0.70;;
10389;SDS011;5241;47.830;12.972;2023-04-24T10:38:57;0.87;;;0.83;;
10389;SDS011;5241;47.830;12.972;2023-04-24T10:41:26;1.93;;;0.80;;
10389;SDS011;5241;47.830;12.972;2023-04-24T10:44:04;2.50;;;0.90;;
10389;SDS011;5241;47.830;12.972;2023-04-24T10:46:37;1.07;;;0.90;;
10389;SDS011;5241;47.830;12.972;2023-04-24T10:49:05;1.27;;;1.00;;
10389;SDS011;5241;47.830;12.972;2023-04-24T10:59:47;1.77;;;1.00;;
10389;SDS011;5241;47.830;12.972;2023-04-24T11:02:36;0.93;;;0.90;;
10389;SDS011;5241;47.830;12.972;2023-04-24T11:05:03;1.90;;;1.20;;
10389;SDS011;5241;47.830;12.972;2023-04-24T11:07:29;1.13;;;1.03;;
10389;SDS011;5241;47.830;12.972;2023-04-24T11:10:00;3.43;;;2.77;;
10389;SDS011;5241;47.830;12.972;2023-04-24T11:12:26;1.73;;;1.30;;
10389;SDS011;5241;47.830;12.972;2023-04-24T11:17:28;1.23;;;1.00;;
10389;SDS011;5241;47.830;12.972;2023-04-24T11:20:05;1.63;;;1.10;;
10389;SDS011;5241;47.830;12.972;2023-04-24T11:22:36;0.90;;;0.90;;
10389;SDS011;5241;47.830;12.972;2023-04-24T11:25:04;1.27;;;1.10;;
10389;SDS011;5241;47.830;12.972;2023-04-24T11:27:34;1.10;;;1.00;;
10389;SDS011;5241;47.830;12.972;2023-04-24T11:30:04;7.97;;;3.73;;
10389;SDS011;5241;47.830;12.972;2023-04-24T11:32:41;2.30;;;1.50;;
10389;SDS011;5241;47.830;12.972;2023-04-24T11:35:08;2.27;;;1.70;;
10389;SDS011;5241;47.830;12.972;2023-04-24T11:37:48;1.83;;;1.40;;
10389;SDS011;5241;47.830;12.972;2023-04-24T11:40:15;1.97;;;1.50;;
10389;SDS011;5241;47.830;12.972;2023-04-24T11:42:43;3.03;;;1.40;;
10389;SDS011;5241;47.830;12.972;2023-04-24T11:45:11;2.60;;;1.63;;
10389;SDS011;5241;47.830;12.972;2023-04-24T11:47:38;1.70;;;1.40;;
10389;SDS011;5241;47.830;12.972;2023-04-24T11:50:05;1.60;;;1.30;;
10389;SDS011;5241;47.830;12.972;2023-04-24T11:52:39;1.73;;;1.50;;
10389;SDS011;5241;47.830;12.972;2023-04-24T11:55:22;1.40;;;1.30;;
10389;SDS011;5241;47.830;12.972;2023-04-24T11:57:52;1.20;;;1.10;;
10389;SDS011;5241;47.830;12.972;2023-04-24T12:00:20;2.47;;;1.20;;
10389;SDS011;5241;47.830;12.972;2023-04-24T12:02:47;1.23;;;1.13;;
10389;SDS011;5241;47.830;12.972;2023-04-24T12:05:20;2.00;;;1.10;;
10389;SDS011;5241;47.830;12.972;2023-04-24T12:07:46;1.40;;;1.20;;
10389;SDS011;5241;47.830;12.972;2023-04-24T12:10:12;1.80;;;1.30;;
10389;SDS011;5241;47.830;12.972;2023-04-24T12:12:38;1.20;;;1.10;;
10389;SDS011;5241;47.830;12.972;2023-04-24T12:15:07;1.20;;;1.00;;
10389;SDS011;5241;47.830;12.972;2023-04-24T12:17:33;1.57;;;1.27;;
10389;SDS011;5241;47.830;12.972;2023-04-24T12:20:04;1.60;;;1.20;;
10389;SDS011;5241;47.830;12.972;2023-04-24T12:25:22;2.30;;;1.10;;
10389;SDS011;5241;47.830;12.972;2023-04-24T12:28:11;2.17;;;1.00;;
10389;SDS011;5241;47.830;12.972;2023-04-24T12:30:43;1.67;;;1.00;;
10389;SDS011;5241;47.830;12.972;2023-04-24T12:33:16;2.70;;;1.40;;
10389;SDS011;5241;47.830;12.972;2023-04-24T12:35:48;1.60;;;1.20;;
10389;SDS011;5241;47.830;12.972;2023-04-24T12:38:21;1.73;;;1.20;;
10389;SDS011;5241;47.830;12.972;2023-04-24T12:40:47;1.10;;;1.00;;
10389;SDS011;5241;47.830;12.972;2023-04-24T12:43:25;2.70;;;1.37;;
10389;SDS011;5241;47.830;12.972;2023-04-24T12:45:51;2.20;;;1.17;;
10389;SDS011;5241;47.830;12.972;2023-04-24T12:48:17;3.70;;;1.30;;
10389;SDS011;5241;47.830;12.972;2023-04-24T12:50:43;1.83;;;1.20;;
10389;SDS011;5241;47.830;12.972;2023-04-24T12:53:09;1.70;;;1.20;;
10389;SDS011;5241;47.830;12.972;2023-04-24T12:55:35;1.30;;;1.20;;
10389;SDS011;5241;47.830;12.972;2023-04-24T12:58:01;1.87;;;1.60;;
10389;SDS011;5241;47.830;12.972;2023-04-24T13:00:28;1.50;;;1.40;;
10389;SDS011;5241;47.830;12.972;2023-04-24T13:02:53;3.63;;;2.07;;
10389;SDS011;5241;47.830;12.972;2023-04-24T13:05:19;1.73;;;1.37;;
10389;SDS011;5241;47.830;12.972;2023-04-24T13:07:45;1.53;;;1.43;;
10389;SDS011;5241;47.830;12.972;2023-04-24T13:10:10;2.07;;;1.60;;
10389;SDS011;5241;47.830;12.972;2023-04-24T13:12:38;2.17;;;1.80;;
10389;SDS011;5241;47.830;12.972;2023-04-24T13:15:04;1.30;;;1.17;;
10389;SDS011;5241;47.830;12.972;2023-04-24T13:17:30;1.60;;;1.50;;
10389;SDS011;5241;47.830;12.972;2023-04-24T13:19:56;2.57;;;2.30;;
10389;SDS011;5241;47.830;12.972;2023-04-24T13:22:21;3.03;;;2.20;;
10389;SDS011;5241;47.830;12.972;2023-04-24T13:24:47;1.23;;;1.10;;
10389;SDS011;5241;47.830;12.972;2023-04-24T13:27:16;1.50;;;1.37;;
10389;SDS011;5241;47.830;12.972;2023-04-24T13:29:41;1.97;;;1.40;;
10389;SDS011;5241;47.830;12.972;2023-04-24T13:32:07;2.03;;;1.53;;
10389;SDS011;5241;47.830;12.972;2023-04-24T13:34:33;2.57;;;1.70;;
10389;SDS011;5241;47.830;12.972;2023-04-24T13:37:02;2.20;;;2.00;;
10389;SDS011;5241;47.830;12.972;2023-04-24T13:39:28;2.50;;;1.83;;
10389;SDS011;5241;47.830;12.972;2023-04-24T13:41:54;2.03;;;1.80;;
10389;SDS011;5241;47.830;12.972;2023-04-24T13:44:20;1.90;;;1.80;;
10389;SDS011;5241;47.830;12.972;2023-04-24T13:46:47;2.23;;;1.40;;
10389;SDS011;5241;47.830;12.972;2023-04-24T13:49:15;1.63;;;1.53;;
10389;SDS011;5241;47.830;12.972;2023-04-24T13:51:41;2.13;;;1.40;;
10389;SDS011;5241;47.830;12.972;2023-04-24T13:54:07;1.43;;;1.33;;
10389;SDS011;5241;47.830;12.972;2023-04-24T13:56:33;1.40;;;1.30;;
10389;SDS011;5241;47.830;12.972;2023-04-24T13:58:59;1.57;;;1.40;;
10389;SDS011;5241;47.830;12.972;2023-04-24T14:01:25;1.20;;;1.10;;
10389;SDS011;5241;47.830;12.972;2023-04-24T14:03:51;1.20;;;1.10;;
10389;SDS011;5241;47.830;12.972;2023-04-24T14:06:20;1.57;;;1.00;;
10389;SDS011;5241;47.830;12.972;2023-04-24T14:08:46;1.17;;;1.07;;
10389;SDS011;5241;47.830;12.972;2023-04-24T14:11:12;2.07;;;1.60;;
10389;SDS011;5241;47.830;12.972;2023-04-24T14:13:38;2.47;;;1.40;;
10389;SDS011;5241;47.830;12.972;2023-04-24T14:16:05;2.13;;;1.40;;
10389;SDS011;5241;47.830;12.972;2023-04-24T14:18:31;2.63;;;1.40;;
10389;SDS011;5241;47.830;12.972;2023-04-24T14:20:57;1.20;;;1.10;;
10389;SDS011;5241;47.830;12.972;2023-04-24T14:23:23;2.10;;;1.00;;
10389;SDS011;5241;47.830;12.972;2023-04-24T14:25:48;1.60;;;1.50;;
10389;SDS011;5241;47.830;12.972;2023-04-24T14:28:17;1.53;;;1.30;;
10389;SDS011;5241;47.830;12.972;2023-04-24T14:30:43;1.03;;;0.97;;
10389;SDS011;5241;47.830;12.972;2023-04-24T14:33:09;2.07;;;1.63;;
10389;SDS011;5241;47.830;12.972;2023-04-24T14:35:35;1.87;;;1.27;;
10389;SDS011;5241;47.830;12.972;2023-04-24T14:38:01;2.00;;;1.77;;
10389;SDS011;5241;47.830;12.972;2023-04-24T14:40:27;2.53;;;2.30;;
10389;SDS011;5241;47.830;12.972;2023-04-24T14:42:52;2.20;;;1.57;;
10389;SDS011;5241;47.830;12.972;2023-04-24T14:45:18;1.30;;;1.20;;
10389;SDS011;5241;47.830;12.972;2023-04-24T14:47:44;2.00;;;1.73;;
10389;SDS011;5241;47.830;12.972;2023-04-24T14:50:10;1.83;;;1.67;;
10389;SDS011;5241;47.830;12.972;2023-04-24T14:52:37;2.30;;;1.60;;
10389;SDS011;5241;47.830;12.972;2023-04-24T14:55:03;3.17;;;2.20;;
10389;SDS011;5241;47.830;12.972;2023-04-24T14:57:29;2.20;;;2.00;;
10389;SDS011;5241;47.830;12.972;2023-04-24T14:59:55;4.30;;;3.90;;